Time;durP1;ratioP1;P1;durP2;ratioP2;P2;SDS_P1;SDS_P2;PMS_P1;PMS_P2;Temp;Humidity;BMP_temperature;BMP_pressure;BME280_temperature;BME280_humidity;BME280_pressure;Samples;Min_cycle;Max_cycle;Signal;HPM_P1;HPM_P2
2021/05/04 00:00:55;;;;;;;13.90;9.32;;;;;;;5.76;51.65;100209.47;5017879;28;20034;-64
2021/05/04 00:03:21;;;;;;;14.35;9.00;;;;;;;5.90;51.21;100201.25;5033653;28;20555;-63
2021/05/04 00:05:46;;;;;;;14.63;8.90;;;;;;;5.70;51.95;100202.69;5017309;28;20029;-63
2021/05/04 00:08:12;;;;;;;12.40;8.38;;;;;;;5.59;51.13;100181.44;5035307;28;20037;-63
2021/05/04 00:10:37;;;;;;;15.93;8.63;;;;;;;5.60;51.03;100165.84;5031684;28;20037;-64
2021/05/04 00:13:03;;;;;;;14.40;9.35;;;;;;;5.49;51.49;100154.13;5020416;28;20068;-64
2021/05/04 00:15:29;;;;;;;13.75;7.90;;;;;;;5.60;51.57;100139.91;5034314;28;20091;-64
2021/05/04 00:17:54;;;;;;;11.38;8.23;;;;;;;5.62;51.06;100130.34;5019385;28;20064;-62
2021/05/04 00:20:20;;;;;;;11.38;7.53;;;;;;;5.78;50.31;100122.94;5034141;28;20040;-64
2021/05/04 00:22:45;;;;;;;12.63;8.43;;;;;;;5.81;49.99;100107.25;5033907;28;20052;-63
2021/05/04 00:25:11;;;;;;;11.40;7.80;;;;;;;6.12;49.13;100092.44;5016013;28;20040;-65
2021/05/04 00:27:36;;;;;;;12.55;8.05;;;;;;;6.09;48.89;100093.41;5034228;28;20816;-66
2021/05/04 00:30:03;;;;;;;11.38;6.93;;;;;;;6.04;48.74;100070.22;5030773;28;20429;-64
2021/05/04 00:32:29;;;;;;;9.43;7.22;;;;;;;6.11;48.63;100054.44;5035923;28;20225;-66
2021/05/04 00:34:54;;;;;;;13.23;7.35;;;;;;;5.93;49.19;100051.56;5037287;28;20025;-65
2021/05/04 00:37:20;;;;;;;12.30;6.78;;;;;;;6.02;49.05;100046.06;5037147;28;20170;-64
2021/05/04 00:39:45;;;;;;;9.30;6.63;;;;;;;5.88;50.05;100033.56;5034300;28;20041;-65
2021/05/04 00:42:11;;;;;;;11.27;7.40;;;;;;;6.11;49.66;100018.13;5058049;22;20077;-68
2021/05/04 00:44:36;;;;;;;9.15;6.05;;;;;;;5.83;49.41;100000.91;5033591;28;20053;-67
2021/05/04 00:47:02;;;;;;;8.43;6.35;;;;;;;5.55;49.51;99994.06;5033611;28;20050;-67
2021/05/04 00:49:27;;;;;;;7.78;6.03;;;;;;;5.76;49.35;99976.09;5033364;28;20040;-67
2021/05/04 00:51:57;;;;;;;9.23;6.22;;;;;;;5.81;49.75;99977.59;5029031;28;20033;-68
2021/05/04 00:54:24;;;;;;;7.80;5.63;;;;;;;5.39;51.33;99962.63;5028891;28;20064;-68
2021/05/04 00:56:54;;;;;;;9.18;6.18;;;;;;;5.84;50.04;99953.34;4996558;28;20068;-67
2021/05/04 00:59:23;;;;;;;11.25;6.53;;;;;;;5.28;51.38;99958.66;5028794;28;20044;-68
2021/05/04 01:01:52;;;;;;;7.53;5.20;;;;;;;5.76;49.71;99944.97;5027881;28;20642;-67
2021/05/04 01:04:19;;;;;;;5.43;4.60;;;;;;;5.77;49.65;99931.09;5025058;28;20615;-67
2021/05/04 01:06:44;;;;;;;6.53;4.80;;;;;;;5.72;49.05;99922.63;5009429;28;20094;-66
2021/05/04 01:09:13;;;;;;;9.73;5.22;;;;;;;5.61;49.63;99928.19;5009879;28;20046;-67
2021/05/04 01:11:39;;;;;;;8.23;5.72;;;;;;;5.92;48.53;99899.44;5011956;28;20445;-67
2021/05/04 01:14:05;;;;;;;10.95;5.32;;;;;;;6.12;48.54;99895.28;5009975;28;20048;-66
2021/05/04 01:16:30;;;;;;;9.98;6.20;;;;;;;5.94;49.52;99886.41;5027804;28;20394;-67
2021/05/04 01:18:56;;;;;;;9.55;5.40;;;;;;;5.80;49.26;99890.34;5009204;28;20061;-67
2021/05/04 01:21:21;;;;;;;10.05;5.45;;;;;;;5.96;48.64;99875.06;5030013;28;20540;-67
2021/05/04 01:23:47;;;;;;;6.85;5.35;;;;;;;5.95;48.87;99865.63;5025545;28;20033;-67
2021/05/04 01:26:13;;;;;;;4.95;4.10;;;;;;;5.29;50.19;99861.91;4982578;28;20037;-67
2021/05/04 01:28:38;;;;;;;5.78;4.30;;;;;;;5.52;50.30;99849.00;5026278;28;20613;-68
2021/05/04 01:31:04;;;;;;;6.45;4.10;;;;;;;5.69;49.87;99829.41;5030023;28;20029;-67
2021/05/04 01:33:29;;;;;;;7.05;4.43;;;;;;;5.59;49.55;99842.72;5011230;28;20234;-67
2021/05/04 01:35:54;;;;;;;5.28;4.07;;;;;;;6.07;49.25;99833.19;5009735;28;20601;-67
2021/05/04 01:38:20;;;;;;;6.65;3.90;;;;;;;5.81;49.94;99819.41;5008627;28;20091;-67
2021/05/04 01:40:46;;;;;;;8.90;4.30;;;;;;;5.65;51.09;99803.59;5027103;28;20037;-67
2021/05/04 01:43:11;;;;;;;5.78;3.78;;;;;;;5.83;50.33;99802.06;5026604;28;20577;-67
2021/05/04 01:45:37;;;;;;;6.35;3.97;;;;;;;5.59;51.12;99803.84;5026437;28;20087;-67
2021/05/04 01:48:02;;;;;;;6.68;4.65;;;;;;;5.76;50.23;99802.34;5010743;28;20100;-67
2021/05/04 01:50:28;;;;;;;5.43;3.92;;;;;;;6.14;49.47;99792.28;5027457;28;20662;-67
2021/05/04 01:52:53;;;;;;;5.35;3.88;;;;;;;5.94;50.05;99774.88;5031014;28;20876;-67
2021/05/04 01:55:19;;;;;;;5.18;3.22;;;;;;;5.98;50.35;99779.06;4993716;28;20112;-67
2021/05/04 01:57:45;;;;;;;5.75;4.50;;;;;;;5.48;51.45;99759.31;5024700;28;22007;-67
2021/05/04 02:00:11;;;;;;;4.38;3.47;;;;;;;4.77;52.37;99753.16;5008134;28;20045;-69
2021/05/04 02:02:36;;;;;;;9.43;4.22;;;;;;;5.72;51.47;99761.88;4992165;28;20036;-67
2021/05/04 02:05:06;;;;;;;6.10;3.95;;;;;;;5.67;51.59;99755.13;5010685;28;20033;-67
2021/05/04 02:07:31;;;;;;;5.40;3.65;;;;;;;5.70;50.61;99738.59;5012604;28;20041;-66
2021/05/04 02:09:57;;;;;;;6.57;4.28;;;;;;;4.60;53.98;99753.69;5014329;28;20127;-67
2021/05/04 02:12:23;;;;;;;4.65;4.13;;;;;;;5.31;52.87;99735.75;4988925;28;20056;-67
2021/05/04 02:14:51;;;;;;;3.88;3.40;;;;;;;5.54;52.47;99733.16;5008006;28;20189;-67
2021/05/04 02:17:17;;;;;;;4.95;3.60;;;;;;;5.69;52.50;99725.72;5006761;28;20705;-67
2021/05/04 02:19:42;;;;;;;5.20;4.20;;;;;;;5.17;53.41;99716.38;5009445;28;20033;-68
2021/05/04 02:22:08;;;;;;;7.07;4.45;;;;;;;5.35;53.65;99714.88;5007579;28;20029;-67
2021/05/04 02:24:34;;;;;;;6.18;3.92;;;;;;;5.82;53.20;99708.78;5026143;28;20935;-67
2021/05/04 02:27:00;;;;;;;4.93;3.65;;;;;;;5.56;53.09;99697.66;5026241;28;20049;-67
2021/05/04 02:29:25;;;;;;;4.97;3.55;;;;;;;5.36;54.41;99690.63;5028145;28;20033;-67
2021/05/04 02:31:51;;;;;;;10.10;4.30;;;;;;;5.28;55.40;99694.41;5025096;28;20048;-67
2021/05/04 02:34:17;;;;;;;4.63;4.15;;;;;;;5.32;55.66;99685.63;5023771;28;20049;-68
2021/05/04 02:36:42;;;;;;;9.90;4.82;;;;;;;5.49;55.11;99678.06;5010235;28;20037;-68
2021/05/04 02:39:08;;;;;;;7.95;4.70;;;;;;;5.15;56.37;99668.97;5026083;28;20053;-67
2021/05/04 02:41:35;;;;;;;15.55;4.82;;;;;;;5.65;55.52;99662.75;5010490;28;20119;-67
2021/05/04 02:44:02;;;;;;;6.22;4.55;;;;;;;5.90;54.96;99662.63;4992741;28;20124;-68
2021/05/04 02:46:30;;;;;;;7.25;5.00;;;;;;;5.38;56.21;99659.47;5026261;28;20037;-68
2021/05/04 02:48:57;;;;;;;5.68;4.55;;;;;;;5.54;56.30;99651.97;5012282;28;20036;-67
2021/05/04 02:51:23;;;;;;;6.22;4.43;;;;;;;5.90;55.41;99646.25;5008110;28;20124;-68
2021/05/04 02:53:49;;;;;;;6.13;4.22;;;;;;;5.86;55.26;99642.94;5007568;28;20474;-68
2021/05/04 02:56:15;;;;;;;8.45;5.00;;;;;;;5.46;56.81;99637.56;5007627;28;20028;-68
2021/05/04 02:58:41;;;;;;;5.97;4.07;;;;;;;5.84;55.57;99627.44;5011560;28;20036;-68
2021/05/04 03:01:06;;;;;;;7.18;5.05;;;;;;;5.84;56.01;99614.47;5010582;28;20056;-67
2021/05/04 03:03:35;;;;;;;8.80;4.80;;;;;;;5.96;55.63;99610.53;5013348;28;20497;-67
2021/05/04 03:06:02;;;;;;;5.72;4.32;;;;;;;5.79;56.05;99592.22;5031155;28;20044;-68
2021/05/04 03:08:28;;;;;;;6.40;4.30;;;;;;;5.33;57.79;99591.47;5031510;28;20026;-68
2021/05/04 03:10:54;;;;;;;6.28;4.68;;;;;;;5.26;58.04;99588.25;5029862;28;20055;-67
2021/05/04 03:13:31;;;;;;;8.20;4.20;;;;;;;5.32;57.14;99575.03;5014220;28;20025;-68
2021/05/04 03:15:57;;;;;;;5.20;4.50;;;;;;;5.70;56.82;99566.66;5028427;28;20091;-68
2021/05/04 03:18:22;;;;;;;12.20;5.05;;;;;;;5.24;57.78;99552.03;5030082;28;20049;-68
2021/05/04 03:20:49;;;;;;;6.05;4.55;;;;;;;5.12;57.87;99547.31;5031546;28;20033;-67
2021/05/04 03:23:15;;;;;;;5.05;4.25;;;;;;;4.89;58.99;99537.00;5014619;28;20029;-67
2021/05/04 03:25:42;;;;;;;5.20;4.10;;;;;;;5.56;56.85;99529.19;5012329;28;20037;-67
2021/05/04 03:28:09;;;;;;;7.38;4.65;;;;;;;5.45;57.08;99523.59;5031229;28;20037;-67
2021/05/04 03:30:34;;;;;;;5.57;3.88;;;;;;;5.25;58.01;99525.22;5012990;28;20041;-67
2021/05/04 03:33:00;;;;;;;6.05;4.00;;;;;;;5.76;56.28;99525.78;5010352;28;20094;-68
2021/05/04 03:35:25;;;;;;;7.65;4.70;;;;;;;5.55;57.28;99504.19;5029848;28;20033;-67
2021/05/04 03:37:51;;;;;;;6.03;4.30;;;;;;;5.10;58.16;99510.31;5029843;28;20048;-67
2021/05/04 03:40:17;;;;;;;10.50;4.45;;;;;;;5.16;58.81;99491.91;5013992;28;20486;-68
2021/05/04 03:42:42;;;;;;;5.78;4.57;;;;;;;5.13;58.77;99489.44;5028354;28;20033;-67
2021/05/04 03:45:11;;;;;;;5.30;4.18;;;;;;;5.19;58.27;99481.44;5011481;28;20136;-68
2021/05/04 03:47:39;;;;;;;7.28;3.85;;;;;;;4.80;59.05;99471.69;5031502;28;20043;-68
2021/05/04 03:50:07;;;;;;;5.40;4.30;;;;;;;4.88;58.78;99468.00;5012464;28;20037;-68
2021/05/04 03:52:33;;;;;;;4.72;3.58;;;;;;;4.74;59.37;99461.56;5011669;28;20041;-68
2021/05/04 03:54:58;;;;;;;4.80;3.67;;;;;;;4.93;58.51;99451.38;5030725;28;20032;-67
2021/05/04 03:57:24;;;;;;;6.13;3.20;;;;;;;4.97;58.66;99446.94;5032665;28;20037;-67
2021/05/04 03:59:50;;;;;;;7.15;3.28;;;;;;;4.61;59.49;99443.09;5029296;28;20171;-67
2021/05/04 04:02:16;;;;;;;5.63;3.03;;;;;;;4.94;58.92;99424.56;4995719;28;20066;-67
2021/05/04 04:04:42;;;;;;;9.02;3.45;;;;;;;5.04;58.41;99412.97;5013585;28;20386;-67
2021/05/04 04:07:07;;;;;;;6.05;3.88;;;;;;;5.40;57.46;99398.56;5030380;28;20397;-67
2021/05/04 04:09:33;;;;;;;5.70;3.22;;;;;;;5.34;57.65;99399.66;5011468;28;20032;-67
2021/05/04 04:11:58;;;;;;;4.70;2.80;;;;;;;5.33;57.81;99385.03;5013534;28;20533;-66
2021/05/04 04:14:23;;;;;;;3.22;2.60;;;;;;;5.17;57.95;99387.41;5028178;28;20371;-68
2021/05/04 04:16:49;;;;;;;4.43;2.92;;;;;;;4.67;59.54;99364.34;5029192;28;20045;-67
2021/05/04 04:19:14;;;;;;;7.75;2.78;;;;;;;5.30;57.18;99366.16;5010108;28;20033;-68
2021/05/04 04:21:40;;;;;;;3.70;2.85;;;;;;;4.96;58.09;99362.38;5011934;28;20029;-67
2021/05/04 04:24:06;;;;;;;3.08;2.05;;;;;;;5.31;57.11;99353.16;5010287;28;20064;-67
2021/05/04 04:26:32;;;;;;;3.78;2.97;;;;;;;4.35;59.46;99357.88;5012849;28;20037;-68
2021/05/04 04:28:57;;;;;;;6.65;2.05;;;;;;;4.52;59.96;99352.88;5027891;28;20029;-68
2021/05/04 04:31:23;;;;;;;4.57;2.25;;;;;;;4.45;59.81;99338.47;5002040;28;20048;-68
2021/05/04 04:33:48;;;;;;;4.82;2.78;;;;;;;4.84;58.90;99332.63;5027831;28;20140;-67
2021/05/04 04:36:14;;;;;;;3.08;2.35;;;;;;;4.87;58.69;99326.50;5010481;28;20103;-67
2021/05/04 04:38:39;;;;;;;3.40;2.22;;;;;;;4.63;59.69;99321.38;4995567;28;20128;-68
2021/05/04 04:41:05;;;;;;;4.13;2.05;;;;;;;4.77;59.25;99318.25;5028273;28;20033;-68
2021/05/04 04:43:30;;;;;;;3.28;2.05;;;;;;;4.78;58.81;99313.00;5009356;28;20029;-67
2021/05/04 04:45:56;;;;;;;3.28;1.85;;;;;;;5.36;57.19;99308.91;4993055;28;20064;-67
2021/05/04 04:48:21;;;;;;;2.58;1.70;;;;;;;5.29;57.30;99304.91;4995207;28;20045;-68
2021/05/04 04:50:47;;;;;;;4.63;1.95;;;;;;;5.36;57.29;99308.91;5028975;28;20111;-68
2021/05/04 04:53:12;;;;;;;2.78;2.15;;;;;;;5.51;56.93;99295.28;5014585;28;20048;-68
2021/05/04 04:55:38;;;;;;;2.65;1.80;;;;;;;5.39;57.40;99291.50;5009460;28;20104;-70
2021/05/04 04:58:03;;;;;;;6.93;2.10;;;;;;;5.29;57.86;99281.59;5010812;28;20442;-68
2021/05/04 05:00:29;;;;;;;4.85;1.73;;;;;;;4.36;59.83;99271.59;5010021;28;20037;-68
2021/05/04 05:02:54;;;;;;;3.53;2.22;;;;;;;5.37;57.71;99282.06;5012584;28;20064;-69
2021/05/04 05:05:20;;;;;;;2.45;2.22;;;;;;;5.09;58.11;99270.34;5008849;28;20544;-68
2021/05/04 05:07:45;;;;;;;5.13;2.30;;;;;;;5.41;58.01;99265.50;5027124;28;20037;-68
2021/05/04 05:10:11;;;;;;;6.32;1.85;;;;;;;5.32;57.94;99271.09;5028311;28;20038;-68
2021/05/04 05:12:38;;;;;;;4.25;1.83;;;;;;;4.62;59.59;99261.03;5007802;28;20132;-69
2021/05/04 05:15:05;;;;;;;3.50;1.52;;;;;;;4.98;58.97;99241.47;5007748;28;20128;-68
2021/05/04 05:17:30;;;;;;;1.63;1.20;;;;;;;5.25;58.52;99245.44;5010195;28;20386;-68
2021/05/04 05:19:58;;;;;;;2.10;1.23;;;;;;;5.68;57.06;99242.69;5028906;28;20078;-68
2021/05/04 05:22:24;;;;;;;4.05;2.20;;;;;;;5.64;57.44;99231.63;4997548;28;20033;-68
2021/05/04 05:24:50;;;;;;;2.20;1.20;;;;;;;5.14;59.04;99221.75;5029160;28;20044;-69
2021/05/04 05:27:15;;;;;;;2.08;1.20;;;;;;;5.44;57.96;99205.78;5029776;28;20682;-68
2021/05/04 05:29:41;;;;;;;2.65;1.40;;;;;;;4.89;59.22;99211.63;5029331;28;20037;-68
2021/05/04 05:32:07;;;;;;;3.60;1.75;;;;;;;5.24;58.74;99217.03;5023694;28;20049;-68
2021/05/04 05:34:32;;;;;;;3.35;1.92;;;;;;;5.53;57.75;99196.75;5028213;28;20029;-68
2021/05/04 05:36:58;;;;;;;2.25;1.65;;;;;;;5.69;57.46;99196.88;5010787;28;20064;-68
2021/05/04 05:39:23;;;;;;;11.60;1.92;;;;;;;5.83;56.44;99191.88;5028669;28;20116;-68
2021/05/04 05:41:49;;;;;;;2.38;1.45;;;;;;;5.40;57.90;99191.28;5024998;28;20036;-69
2021/05/04 05:44:15;;;;;;;3.30;0.90;;;;;;;5.41;57.77;99192.94;5025534;28;20041;-69
2021/05/04 05:46:41;;;;;;;2.15;1.02;;;;;;;5.80;56.89;99195.47;5010048;28;20041;-68
2021/05/04 05:49:07;;;;;;;5.43;1.80;;;;;;;5.81;57.32;99176.38;5026475;28;20410;-68
2021/05/04 05:51:33;;;;;;;2.70;1.33;;;;;;;5.06;59.74;99182.44;4991361;28;20041;-68
2021/05/04 05:53:59;;;;;;;5.35;1.90;;;;;;;5.11;60.10;99180.47;5008522;28;20029;-68
2021/05/04 05:56:24;;;;;;;5.13;2.08;;;;;;;5.22;60.18;99172.22;4995201;28;20038;-68
2021/05/04 05:58:50;;;;;;;3.42;1.88;;;;;;;4.79;61.30;99153.38;5009357;28;20037;-68
2021/05/04 06:01:15;;;;;;;3.53;1.50;;;;;;;5.35;59.77;99156.97;5010293;28;20045;-70
2021/05/04 06:03:41;;;;;;;5.07;2.15;;;;;;;5.45;58.89;99153.03;5010000;28;20406;-68
2021/05/04 06:06:06;;;;;;;2.63;1.83;;;;;;;4.82;61.21;99138.53;5026651;28;20723;-68
2021/05/04 06:08:32;;;;;;;4.05;1.40;;;;;;;5.20;60.02;99148.97;5027593;28;20537;-67
2021/05/04 06:10:57;;;;;;;2.33;1.35;;;;;;;4.94;60.95;99147.53;5012342;28;20041;-68
2021/05/04 06:13:23;;;;;;;4.72;1.15;;;;;;;5.49;59.59;99133.84;5010335;28;20638;-68
2021/05/04 06:15:49;;;;;;;3.45;1.83;;;;;;;6.03;58.21;99139.91;5008172;28;20052;-68
2021/05/04 06:18:15;;;;;;;5.60;1.42;;;;;;;6.04;58.05;99130.38;5011119;28;20041;-68
2021/05/04 06:20:41;;;;;;;2.40;1.40;;;;;;;5.39;59.66;99132.59;5013570;28;20029;-68
2021/05/04 06:23:07;;;;;;;2.63;1.55;;;;;;;5.74;58.21;99133.53;5019446;22;20037;-70
2021/05/04 06:25:33;;;;;;;3.08;1.42;;;;;;;5.34;59.57;99134.56;5014819;28;20089;-75
2021/05/04 06:28:09;;;;;;;5.57;1.85;;;;;;;5.53;59.19;99124.19;5024642;28;20486;-74
2021/05/04 06:30:37;;;;;;;3.38;1.50;;;;;;;6.19;57.99;99115.81;5024583;28;20201;-71
2021/05/04 06:33:09;;;;;;;2.05;1.05;;;;;;;5.86;58.39;99124.34;5029965;28;20487;-74
2021/05/04 06:35:38;;;;;;;1.20;0.93;;;;;;;5.55;59.52;99106.81;5032378;28;20083;-72
2021/05/04 06:38:04;;;;;;;1.88;1.05;;;;;;;5.98;58.15;99136.69;5031889;28;20033;-72
2021/05/04 06:40:31;;;;;;;1.63;1.13;;;;;;;6.24;57.55;99122.44;5033316;28;20043;-70
2021/05/04 06:42:57;;;;;;;3.20;1.33;;;;;;;5.80;59.04;99120.28;5017481;28;20448;-70
2021/05/04 06:45:23;;;;;;;2.58;1.70;;;;;;;5.61;59.36;99128.09;5033164;28;20402;-70
2021/05/04 06:47:48;;;;;;;2.78;1.10;;;;;;;5.19;60.27;99121.41;5030812;28;20045;-71
2021/05/04 06:50:14;;;;;;;3.80;1.60;;;;;;;5.34;61.06;99122.44;5032662;28;20083;-70
2021/05/04 06:52:41;;;;;;;2.83;1.75;;;;;;;4.96;62.45;99129.34;5029522;28;20060;-70
2021/05/04 06:55:07;;;;;;;3.00;1.58;;;;;;;5.16;61.36;99116.34;5030811;28;20231;-70
2021/05/04 06:57:32;;;;;;;2.17;1.38;;;;;;;4.96;62.15;99103.47;5031396;28;20185;-71
2021/05/04 06:59:58;;;;;;;3.85;1.60;;;;;;;5.19;62.03;99111.03;5030487;28;20509;-71
2021/05/04 07:02:23;;;;;;;5.13;1.50;;;;;;;5.88;59.56;99109.53;5016385;28;20025;-70
2021/05/04 07:04:49;;;;;;;2.00;1.50;;;;;;;5.28;61.60;99091.66;5016526;28;20075;-72
2021/05/04 07:07:14;;;;;;;2.65;1.60;;;;;;;5.21;61.52;99083.31;5020510;28;20088;-72
2021/05/04 07:09:40;;;;;;;2.28;1.48;;;;;;;5.13;61.52;99097.53;5028088;28;20125;-72
2021/05/04 07:12:06;;;;;;;1.45;0.82;;;;;;;4.84;62.19;99092.72;5029204;28;20033;-71
2021/05/04 07:14:32;;;;;;;3.60;0.95;;;;;;;5.18;61.75;99083.44;5029161;28;20040;-70
2021/05/04 07:17:00;;;;;;;1.95;1.02;;;;;;;4.45;63.37;99077.19;5034453;28;20037;-70
2021/05/04 07:19:26;;;;;;;1.95;1.08;;;;;;;4.22;64.60;99091.09;5030283;28;20063;-71
2021/05/04 07:21:53;;;;;;;2.92;1.75;;;;;;;5.30;61.89;99076.00;5022531;28;20072;-73
2021/05/04 07:24:19;;;;;;;2.03;1.20;;;;;;;5.04;62.28;99072.91;5031348;28;20629;-71
2021/05/04 07:26:44;;;;;;;3.05;1.17;;;;;;;5.55;61.76;99061.00;5021636;28;20076;-70
2021/05/04 07:29:10;;;;;;;6.80;1.35;;;;;;;5.86;60.32;99064.69;5029317;28;20041;-70
2021/05/04 07:31:35;;;;;;;1.63;1.08;;;;;;;6.01;59.78;99063.91;5029904;28;20032;-71
2021/05/04 07:34:01;;;;;;;3.50;0.88;;;;;;;6.24;58.96;99069.72;5029975;28;20067;-71
2021/05/04 07:36:29;;;;;;;4.10;1.50;;;;;;;5.35;60.54;99042.97;5029951;28;20605;-71
2021/05/04 07:38:55;;;;;;;2.35;0.85;;;;;;;6.84;57.49;99044.13;5029685;28;20044;-71
2021/05/04 07:41:20;;;;;;;2.13;0.70;;;;;;;6.69;57.77;99043.16;5030856;28;20037;-70
2021/05/04 07:43:46;;;;;;;0.75;0.40;;;;;;;6.38;57.37;99028.38;5031075;28;20408;-70
2021/05/04 07:46:11;;;;;;;1.25;0.55;;;;;;;6.80;57.10;99042.59;5033244;28;20029;-70
2021/05/04 07:48:37;;;;;;;3.42;0.95;;;;;;;6.35;58.54;99051.88;5036351;28;20037;-71
2021/05/04 07:51:04;;;;;;;5.28;1.02;;;;;;;6.31;57.87;99045.19;5034339;28;20068;-71
2021/05/04 07:53:31;;;;;;;5.15;0.65;;;;;;;6.08;58.39;99043.69;5027156;28;20028;-70
2021/05/04 07:55:57;;;;;;;2.33;0.80;;;;;;;7.12;56.19;99040.00;5004457;28;20033;-71
2021/05/04 07:58:22;;;;;;;1.60;0.88;;;;;;;6.79;56.66;99038.31;5032320;28;20036;-70
2021/05/04 08:00:47;;;;;;;3.47;1.02;;;;;;;6.76;57.19;99022.91;5032014;28;20055;-70
2021/05/04 08:03:14;;;;;;;2.35;1.05;;;;;;;6.87;55.58;99028.38;5024957;28;20045;-70
2021/05/04 08:05:40;;;;;;;2.88;1.00;;;;;;;5.83;59.62;99031.97;5033693;28;20055;-70
2021/05/04 08:08:05;;;;;;;4.60;1.30;;;;;;;7.79;55.08;99026.78;5032750;28;20547;-71
2021/05/04 08:10:31;;;;;;;2.70;1.17;;;;;;;7.45;56.12;99029.50;5014662;28;20120;-70
2021/05/04 08:12:56;;;;;;;2.53;1.30;;;;;;;6.74;56.70;99027.34;5036259;28;20036;-70
2021/05/04 08:15:22;;;;;;;1.95;1.25;;;;;;;6.99;55.37;99031.22;5017079;28;20438;-71
2021/05/04 08:17:59;;;;;;;3.25;1.40;;;;;;;9.02;52.24;99024.63;5019404;28;20039;-70
2021/05/04 08:20:29;;;;;;;5.43;1.20;;;;;;;8.14;52.24;99028.16;5031243;28;20033;-69
2021/05/04 08:22:55;;;;;;;2.20;1.27;;;;;;;7.90;53.75;99029.59;5021310;28;20051;-70
2021/05/04 08:25:20;;;;;;;3.40;1.13;;;;;;;7.66;54.65;99024.88;5029626;28;20028;-69
2021/05/04 08:27:46;;;;;;;3.17;1.13;;;;;;;7.00;55.95;99031.13;5033622;28;20039;-71
2021/05/04 08:30:12;;;;;;;3.50;1.30;;;;;;;6.77;57.62;99047.94;5029745;28;20079;-70
2021/05/04 08:32:38;;;;;;;4.72;1.30;;;;;;;6.89;56.78;99029.13;5031758;28;20037;-69
2021/05/04 08:35:04;;;;;;;3.35;1.38;;;;;;;7.16;57.03;99048.50;5029406;28;20076;-71
2021/05/04 08:37:29;;;;;;;5.82;2.17;;;;;;;7.08;57.22;99059.28;5016193;28;20432;-70
2021/05/04 08:39:55;;;;;;;1.50;0.30;;;;;;;5.26;55.68;99041.66;5031740;28;20385;-70
2021/05/04 08:42:20;;;;;;;1.40;0.30;;;;;;;4.83;59.29;99038.41;5035745;28;20033;-70
2021/05/04 08:44:52;;;;;;;3.90;0.25;;;;;;;4.40;61.25;99035.16;5034718;28;20087;-71
2021/05/04 08:47:19;;;;;;;2.00;0.20;;;;;;;5.20;59.61;99039.34;5022145;28;20405;-70
2021/05/04 08:49:46;;;;;;;1.25;0.30;;;;;;;5.10;61.48;99038.97;5032329;28;20729;-70
2021/05/04 08:52:11;;;;;;;1.92;0.52;;;;;;;5.35;60.57;99048.16;5032046;28;20041;-70
2021/05/04 08:54:37;;;;;;;4.63;0.40;;;;;;;5.14;59.51;99044.81;5036580;28;20037;-70
2021/05/04 08:57:02;;;;;;;4.93;0.47;;;;;;;4.68;60.10;99058.09;5040850;28;20032;-70
2021/05/04 08:59:28;;;;;;;2.60;0.40;;;;;;;4.43;59.33;99022.94;5032977;28;20167;-70
2021/05/04 09:01:53;;;;;;;3.85;0.50;;;;;;;4.31;61.41;99033.81;5032125;28;20494;-70
2021/05/04 09:04:37;;;;;;;4.90;0.50;;;;;;;5.19;59.72;99037.66;5035335;28;20477;-71
2021/05/04 09:07:39;;;;;;;1.60;0.60;;;;;;;5.14;60.43;99032.69;5017446;28;20105;-70
2021/05/04 09:10:23;;;;;;;11.50;0.80;;;;;;;4.78;61.73;99022.25;5018509;28;20122;-71
2021/05/04 09:21:14;;;;;;;3.95;1.25;;;;;;;8.33;54.43;99001.00;5019787;28;20041;-69
2021/05/04 09:23:43;;;;;;;6.13;0.70;;;;;;;9.02;53.75;98994.16;5018601;28;20040;-69
2021/05/04 09:26:21;;;;;;;4.75;1.02;;;;;;;8.32;53.13;99020.19;5015139;28;20182;-70
2021/05/04 09:28:50;;;;;;;4.90;0.95;;;;;;;8.32;54.73;98999.34;5015751;28;20575;-71
2021/05/04 09:31:27;;;;;;;4.95;0.98;;;;;;;8.74;52.16;99001.13;5033318;28;20033;-70
2021/05/04 09:33:55;;;;;;;4.50;0.50;;;;;;;8.17;53.90;99006.31;5022964;28;20083;-70
2021/05/04 09:36:43;;;;;;;10.15;1.05;;;;;;;7.91;54.03;99000.91;5023376;23;20527;-64
2021/05/04 09:39:25;;;;;;;15.32;0.85;;;;;;;8.42;53.14;99000.44;5020804;28;20172;-64
2021/05/04 09:41:51;;;;;;;9.40;1.65;;;;;;;8.73;51.93;99001.22;5017790;28;20043;-66
2021/05/04 09:44:47;;;;;;;12.02;1.23;;;;;;;8.50;51.59;99007.81;5021781;28;20036;-64
2021/05/04 09:47:24;;;;;;;7.45;0.63;;;;;;;8.34;52.22;99000.94;4966871;28;20491;-64
2021/05/04 09:49:50;;;;;;;5.22;0.75;;;;;;;8.53;52.32;98992.00;5001975;28;20033;-64
2021/05/04 09:53:04;;;;;;;9.88;1.33;;;;;;;9.73;50.09;99007.88;5000553;28;20133;-64
2021/05/04 09:55:04;;;;;;;4.15;0.52;;;;;;;8.64;48.28;99004.34;4974707;28;20033;-64
2021/05/04 09:57:33;;;;;;;1.13;0.40;;;;;;;9.02;47.06;99001.16;5002431;28;20492;-64
2021/05/04 09:59:58;;;;;;;7.60;0.98;;;;;;;9.46;47.05;99002.69;5002420;28;20045;-64
2021/05/04 10:02:24;;;;;;;4.10;0.32;;;;;;;8.39;47.03;98997.22;5003395;28;20033;-63
2021/05/04 10:04:54;;;;;;;4.47;0.40;;;;;;;8.81;45.65;98980.75;5003446;28;20029;-63
2021/05/04 10:07:23;;;;;;;7.43;0.77;;;;;;;9.69;45.94;98994.19;5002861;28;20036;-65
2021/05/04 10:09:50;;;;;;;5.47;0.63;;;;;;;9.27;46.06;98988.22;5003008;28;20497;-64
2021/05/04 10:12:18;;;;;;;5.22;0.57;;;;;;;9.69;46.70;98999.38;5004482;28;20107;-63
2021/05/04 10:14:45;;;;;;;4.90;0.50;;;;;;;8.89;47.19;98986.28;4989834;28;20061;-63
2021/05/04 10:17:11;;;;;;;7.40;0.95;;;;;;;9.00;48.86;98995.22;4997801;28;20045;-64
2021/05/04 10:19:37;;;;;;;5.50;0.68;;;;;;;7.97;52.20;99002.28;4979747;28;20029;-64
2021/05/04 10:22:04;;;;;;;2.13;0.30;;;;;;;8.21;53.11;99026.03;5001235;28;20692;-63
2021/05/04 10:24:33;;;;;;;4.20;0.63;;;;;;;6.72;56.39;99023.16;5004818;28;20050;-64
2021/05/04 10:27:04;;;;;;;6.85;0.95;;;;;;;7.39;56.17;99024.66;4987556;28;20100;-64
2021/05/04 10:29:31;;;;;;;7.85;0.95;;;;;;;7.46;56.22;98999.97;5004145;28;20033;-63
2021/05/04 10:31:58;;;;;;;3.55;1.13;;;;;;;7.46;55.53;98999.16;4979939;28;20057;-64
2021/05/04 10:34:28;;;;;;;8.30;1.23;;;;;;;8.64;54.70;99004.34;5001798;28;20038;-63
2021/05/04 10:36:55;;;;;;;5.50;0.63;;;;;;;8.00;55.04;98998.66;5002953;28;20065;-64
2021/05/04 10:39:41;;;;;;;5.80;0.60;;;;;;;7.73;52.95;98982.00;5004555;28;20034;-64
2021/05/04 10:42:11;;;;;;;6.60;0.80;;;;;;;8.61;52.16;98979.34;5003113;28;20042;-63
2021/05/04 10:44:58;;;;;;;4.68;0.75;;;;;;;8.38;50.41;98967.72;5005922;28;20030;-64
2021/05/04 10:47:39;;;;;;;4.13;0.88;;;;;;;7.82;52.84;98974.56;4984521;28;20427;-64
2021/05/04 10:50:09;;;;;;;5.80;0.82;;;;;;;9.07;50.52;98968.66;4983871;28;20042;-64
2021/05/04 10:52:58;;;;;;;3.67;0.60;;;;;;;7.97;53.02;99041.31;4982742;28;20026;-63
2021/05/04 10:55:51;;;;;;;5.53;0.30;;;;;;;6.32;54.73;99031.28;4998555;28;20029;-64
2021/05/04 10:58:21;;;;;;;4.07;0.30;;;;;;;5.65;56.01;99025.94;4998862;28;20045;-63
2021/05/04 11:00:52;;;;;;;2.10;0.10;;;;;;;6.08;54.78;99018.63;4998858;28;20029;-62
2021/05/04 11:03:30;;;;;;;1.77;0.10;;;;;;;5.81;55.64;99020.00;5001476;28;20576;-61
2021/05/04 11:05:58;;;;;;;2.25;0.22;;;;;;;6.34;53.84;99024.25;5001208;28;20030;-66
2021/05/04 11:08:25;;;;;;;0.32;0.03;;;;;;;6.95;54.05;99021.91;4995690;28;20038;-65
2021/05/04 11:11:28;;;;;;;0.95;0.20;;;;;;;6.84;54.19;99007.75;4998676;28;20482;-64
2021/05/04 11:13:58;;;;;;;1.23;0.20;;;;;;;7.32;53.88;99013.75;5004681;28;20512;-64
2021/05/04 11:16:40;;;;;;;2.47;0.17;;;;;;;7.40;52.21;98987.34;4999138;28;20084;-63
2021/05/04 11:19:07;;;;;;;;;;;;;;;7.91;52.93;98987.03;5000463;28;20041;-64
2021/05/04 11:21:50;;;;;;;0.63;0.10;;;;;;;8.97;49.61;98973.63;5003417;28;20374;-63
2021/05/04 11:24:21;;;;;;;2.28;0.10;;;;;;;8.45;50.67;98970.78;4975334;28;20025;-64
2021/05/04 11:26:51;;;;;;;0.55;0.10;;;;;;;7.99;52.09;98960.59;5000766;28;20041;-64
2021/05/04 11:29:21;;;;;;;1.25;0.20;;;;;;;8.43;51.50;98950.06;5006488;28;20382;-64
2021/05/04 11:31:50;;;;;;;3.22;0.30;;;;;;;7.39;53.74;98971.84;5003523;28;20378;-65
2021/05/04 11:34:44;;;;;;;2.88;0.65;;;;;;;7.28;54.76;98996.66;4990944;28;20033;-64
2021/05/04 11:37:35;;;;;;;4.78;0.30;;;;;;;6.62;56.65;99022.78;4988467;28;20037;-65
2021/05/04 11:40:09;;;;;;;2.70;0.20;;;;;;;5.55;59.45;99011.75;5000883;28;20555;-64
2021/05/04 11:42:53;;;;;;;1.83;0.10;;;;;;;4.59;61.48;99007.59;5005613;28;20057;-65
2021/05/04 11:45:21;;;;;;;1.40;0.38;;;;;;;4.69;60.93;99002.81;5003386;28;20025;-64
2021/05/04 11:47:50;;;;;;;0.90;0.13;;;;;;;5.09;59.84;99002.75;4985315;28;20029;-64
2021/05/04 11:50:21;;;;;;;1.13;0.20;;;;;;;5.97;58.24;99007.97;4999529;28;20038;-64
2021/05/04 11:52:49;;;;;;;6.15;0.20;;;;;;;6.64;57.56;99015.75;5004878;28;20037;-64